Time;durP1;ratioP1;P1;durP2;ratioP2;P2;SDS_P1;SDS_P2;PMS_P1;PMS_P2;Temp;Humidity;BMP_temperature;BMP_pressure;BME280_temperature;BME280_humidity;BME280_pressure;Samples;Min_cycle;Max_cycle;Signal;HPM_P1;HPM_P2
2022/03/19 00:01:05;;;;;;;63.60;32.55;;;;;;;;;;5001579;28;20038;-86
2022/03/19 00:03:34;;;;;;;66.00;31.45;;;;;;;;;;5019689;28;20093;-86
2022/03/19 00:06:01;;;;;;;64.57;29.75;;;;;;;;;;5019082;28;20033;-85
2022/03/19 00:08:29;;;;;;;61.28;30.50;;;;;;;;;;5020171;28;20444;-83
2022/03/19 00:10:55;;;;;;;61.53;28.85;;;;;;;;;;5019953;28;20022;-85
2022/03/19 00:13:21;;;;;;;63.40;29.23;;;;;;;;;;5020111;28;20102;-85
2022/03/19 00:15:48;;;;;;;66.10;30.90;;;;;;;;;;5019015;28;20445;-86
2022/03/19 00:18:16;;;;;;;61.85;31.23;;;;;;;;;;5030091;28;20502;-85
2022/03/19 00:20:42;;;;;;;64.05;31.33;;;;;;;;;;5018447;28;20026;-86
2022/03/19 00:23:08;;;;;;;65.20;32.33;;;;;;;;;;5018410;28;20033;-85
2022/03/19 00:25:34;;;;;;;60.65;31.25;;;;;;;;;;5017008;28;20030;-85
2022/03/19 00:28:00;;;;;;;64.15;31.40;;;;;;;;;;5017086;28;20402;-85
2022/03/19 00:30:26;;;;;;;62.03;31.33;;;;;;;;;;5017741;28;20022;-84
2022/03/19 00:32:52;;;;;;;65.07;30.55;;;;;;;;;;4998724;28;20026;-86
2022/03/19 00:35:18;;;;;;;63.85;31.35;;;;;;;;;;5016091;28;20028;-84
2022/03/19 00:37:46;;;;;;;70.88;32.40;;;;;;;;;;5015691;28;20030;-85
2022/03/19 00:40:13;;;;;;;65.35;31.88;;;;;;;;;;5000957;28;20022;-84
2022/03/19 00:42:39;;;;;;;69.82;31.95;;;;;;;;;;5017187;28;20026;-85
2022/03/19 00:45:05;;;;;;;68.18;32.78;;;;;;;;;;5015416;28;20431;-85
2022/03/19 00:47:31;;;;;;;71.45;32.83;;;;;;;;;;5017263;28;20070;-85
2022/03/19 00:49:58;;;;;;;64.47;31.75;;;;;;;;;;5017949;28;20033;-86
2022/03/19 00:52:24;;;;;;;72.20;32.72;;;;;;;;;;5017756;28;20031;-85
2022/03/19 00:54:50;;;;;;;65.00;33.35;;;;;;;;;;5020301;28;20608;-85
2022/03/19 00:57:16;;;;;;;72.82;32.92;;;;;;;;;;5003406;28;20034;-85
2022/03/19 00:59:42;;;;;;;61.25;32.25;;;;;;;;;;5022453;28;20392;-85
2022/03/19 01:02:08;;;;;;;59.38;32.08;;;;;;;;;;5024554;28;20022;-85
2022/03/19 01:04:34;;;;;;;70.32;34.58;;;;;;;;;;5024884;28;20029;-85
2022/03/19 01:07:00;;;;;;;68.90;34.28;;;;;;;;;;5038459;28;20485;-85
2022/03/19 01:09:26;;;;;;;66.07;33.08;;;;;;;;;;5020610;28;20035;-85
2022/03/19 01:11:54;;;;;;;71.88;35.35;;;;;;;;;;5041438;28;20021;-85
2022/03/19 01:14:20;;;;;;;68.20;32.75;;;;;;;;;;5042695;28;20113;-84
2022/03/19 01:16:46;;;;;;;68.68;32.83;;;;;;;;;;5047665;28;20025;-83
2022/03/19 01:19:14;;;;;;;70.03;32.03;;;;;;;;;;5049902;28;20032;-84
2022/03/19 01:21:40;;;;;;;66.22;31.35;;;;;;;;;;5028380;28;20021;-84
2022/03/19 01:24:07;;;;;;;70.43;32.03;;;;;;;;;;5004557;28;20468;-85
2022/03/19 01:26:33;;;;;;;67.18;33.65;;;;;;;;;;5014067;28;20021;-86
2022/03/19 01:28:59;;;;;;;65.50;33.08;;;;;;;;;;5059536;28;20013;-87
2022/03/19 01:31:26;;;;;;;66.85;31.13;;;;;;;;;;5017590;28;20400;-85
2022/03/19 01:33:53;;;;;;;60.67;31.35;;;;;;;;;;5031311;28;20034;-85
2022/03/19 01:36:19;;;;;;;67.05;33.67;;;;;;;;;;5036315;28;20025;-84
2022/03/19 01:38:45;;;;;;;62.35;31.25;;;;;;;;;;5037594;28;20029;-84
2022/03/19 01:41:11;;;;;;;61.33;31.85;;;;;;;;;;5039690;28;20403;-86
2022/03/19 01:43:38;;;;;;;63.47;30.55;;;;;;;;;;5040365;28;20026;-84
2022/03/19 01:46:04;;;;;;;61.03;31.25;;;;;;;;;;5041260;28;20026;-84
2022/03/19 01:48:30;;;;;;;64.72;30.92;;;;;;;;;;5037487;28;20029;-84
2022/03/19 01:50:56;;;;;;;60.53;29.92;;;;;;;;;;5020486;28;20018;-84
2022/03/19 01:53:22;;;;;;;59.70;30.27;;;;;;;;;;5013532;28;20022;-85
2022/03/19 01:55:48;;;;;;;58.30;30.73;;;;;;;;;;5039991;28;20469;-85
2022/03/19 01:58:14;;;;;;;61.40;29.40;;;;;;;;;;5039878;28;20025;-86
2022/03/19 02:00:40;;;;;;;62.45;30.77;;;;;;;;;;5039138;28;20041;-83
2022/03/19 02:03:07;;;;;;;59.70;29.92;;;;;;;;;;5027611;28;20026;-84
2022/03/19 02:05:33;;;;;;;57.60;29.02;;;;;;;;;;5022438;28;20018;-84
2022/03/19 02:07:59;;;;;;;60.30;30.40;;;;;;;;;;5021082;28;20072;-85
2022/03/19 02:10:26;;;;;;;58.90;30.27;;;;;;;;;;5019474;28;20049;-85
2022/03/19 02:12:55;;;;;;;59.50;29.83;;;;;;;;;;5020947;28;20405;-83
2022/03/19 02:15:21;;;;;;;59.67;29.23;;;;;;;;;;5023255;28;20157;-83
2022/03/19 02:17:47;;;;;;;65.00;30.88;;;;;;;;;;5028993;28;20641;-84
2022/03/19 02:20:13;;;;;;;59.28;29.77;;;;;;;;;;5041013;28;20593;-84
2022/03/19 02:22:40;;;;;;;61.92;29.40;;;;;;;;;;5040726;28;20025;-83
2022/03/19 02:27:52;;;;;;;59.35;29.85;;;;;;;;;;5041395;28;20041;-84
2022/03/19 02:30:18;;;;;;;54.55;28.52;;;;;;;;;;5041541;28;20064;-83
2022/03/19 02:32:49;;;;;;;60.72;30.38;;;;;;;;;;5022854;28;20026;-84
2022/03/19 02:35:15;;;;;;;65.57;30.85;;;;;;;;;;5023784;28;20022;-83
2022/03/19 02:37:43;;;;;;;58.28;28.77;;;;;;;;;;5038597;28;20033;-84
2022/03/19 02:40:10;;;;;;;58.22;29.35;;;;;;;;;;5040157;28;20109;-85
2022/03/19 02:42:36;;;;;;;58.05;28.33;;;;;;;;;;5040055;28;20021;-83
2022/03/19 02:45:02;;;;;;;62.83;29.95;;;;;;;;;;5022867;28;20029;-83
2022/03/19 02:47:28;;;;;;;53.47;28.52;;;;;;;;;;5040960;28;20027;-85
2022/03/19 02:49:55;;;;;;;51.97;27.60;;;;;;;;;;5022298;28;20052;-83
2022/03/19 02:52:21;;;;;;;64.88;27.95;;;;;;;;;;5040655;28;20018;-85
2022/03/19 02:54:47;;;;;;;63.05;29.90;;;;;;;;;;5039106;28;20112;-85
2022/03/19 02:57:13;;;;;;;60.42;30.25;;;;;;;;;;5039314;28;20033;-85
2022/03/19 02:59:39;;;;;;;64.53;30.80;;;;;;;;;;5037692;28;20408;-85
2022/03/19 03:02:07;;;;;;;53.47;27.83;;;;;;;;;;5038012;28;20037;-83
2022/03/19 03:04:33;;;;;;;60.00;28.90;;;;;;;;;;5037595;28;20402;-83
2022/03/19 03:07:04;;;;;;;57.72;28.52;;;;;;;;;;5018477;28;20037;-82
2022/03/19 03:09:31;;;;;;;60.10;30.23;;;;;;;;;;5018140;28;20033;-84
2022/03/19 03:11:58;;;;;;;58.08;29.35;;;;;;;;;;5031011;28;20087;-84
2022/03/19 03:14:24;;;;;;;61.80;29.55;;;;;;;;;;5028970;28;20030;-83
2022/03/19 03:16:52;;;;;;;60.63;30.75;;;;;;;;;;5023459;28;20040;-84
2022/03/19 03:19:18;;;;;;;62.85;28.83;;;;;;;;;;5020575;28;20057;-84
2022/03/19 03:21:45;;;;;;;56.25;28.33;;;;;;;;;;5007634;28;20021;-83
2022/03/19 03:24:19;;;;;;;58.83;29.70;;;;;;;;;;5037581;28;20068;-85
2022/03/19 03:26:45;;;;;;;58.67;27.27;;;;;;;;;;5001844;28;20110;-85
2022/03/19 03:29:14;;;;;;;58.17;28.52;;;;;;;;;;5033446;28;20025;-85
2022/03/19 03:31:40;;;;;;;56.75;28.55;;;;;;;;;;5010698;28;20116;-83
2022/03/19 03:34:06;;;;;;;54.63;27.58;;;;;;;;;;5014504;28;20026;-84
2022/03/19 03:36:32;;;;;;;60.65;28.90;;;;;;;;;;5013164;28;20029;-83
2022/03/19 03:38:58;;;;;;;61.53;29.15;;;;;;;;;;5013520;28;20074;-84
2022/03/19 03:41:24;;;;;;;68.20;29.58;;;;;;;;;;4996373;28;20124;-84
2022/03/19 03:43:50;;;;;;;58.00;29.55;;;;;;;;;;5013045;28;20029;-85
2022/03/19 03:46:16;;;;;;;64.60;28.58;;;;;;;;;;5025190;28;20112;-85
2022/03/19 03:48:42;;;;;;;49.88;27.35;;;;;;;;;;5019785;28;20030;-85
2022/03/19 03:51:10;;;;;;;59.17;27.63;;;;;;;;;;5024395;28;20021;-86
2022/03/19 03:53:37;;;;;;;61.30;28.25;;;;;;;;;;5023812;28;20398;-85
2022/03/19 03:56:06;;;;;;;65.07;28.48;;;;;;;;;;5005917;28;20033;-85
2022/03/19 03:58:32;;;;;;;58.90;30.25;;;;;;;;;;5015039;28;20091;-85
2022/03/19 04:00:58;;;;;;;60.00;28.23;;;;;;;;;;5032603;28;20385;-85
2022/03/19 04:03:24;;;;;;;53.70;26.38;;;;;;;;;;5032583;28;20037;-85
2022/03/19 04:05:50;;;;;;;66.47;31.83;;;;;;;;;;5033736;28;20021;-85
2022/03/19 04:08:16;;;;;;;58.83;29.50;;;;;;;;;;5017185;28;20103;-84
2022/03/19 04:10:43;;;;;;;50.03;27.02;;;;;;;;;;5014506;28;20038;-85
2022/03/19 04:13:09;;;;;;;51.88;26.08;;;;;;;;;;5006256;28;20017;-85
2022/03/19 04:15:35;;;;;;;57.60;28.20;;;;;;;;;;5028524;28;20036;-85
2022/03/19 04:18:04;;;;;;;58.33;29.30;;;;;;;;;;5005635;28;20021;-85
2022/03/19 04:20:30;;;;;;;57.15;27.63;;;;;;;;;;5018148;28;20089;-84
2022/03/19 04:22:56;;;;;;;54.90;26.80;;;;;;;;;;5033234;28;20091;-85
2022/03/19 04:25:23;;;;;;;52.70;28.25;;;;;;;;;;5034094;28;20048;-84
2022/03/19 04:27:50;;;;;;;62.83;28.23;;;;;;;;;;5015052;28;20431;-84
2022/03/19 04:30:17;;;;;;;60.60;28.92;;;;;;;;;;5037017;28;20029;-84
2022/03/19 04:32:45;;;;;;;55.17;27.63;;;;;;;;;;5018111;28;20040;-85
2022/03/19 04:37:59;;;;;;;58.20;27.38;;;;;;;;;;5035712;28;20044;-84
2022/03/19 04:40:25;;;;;;;55.40;27.50;;;;;;;;;;5034321;28;20413;-84
2022/03/19 04:42:51;;;;;;;59.78;28.70;;;;;;;;;;5018083;28;20523;-85
2022/03/19 04:45:18;;;;;;;55.40;29.08;;;;;;;;;;5004633;28;20089;-83
2022/03/19 04:47:44;;;;;;;52.85;26.10;;;;;;;;;;5001732;28;20124;-85
2022/03/19 04:50:11;;;;;;;56.55;27.73;;;;;;;;;;5016189;28;20072;-85
2022/03/19 04:52:38;;;;;;;58.60;28.80;;;;;;;;;;5002430;28;20041;-85
2022/03/19 04:55:04;;;;;;;53.95;27.65;;;;;;;;;;5026204;28;20095;-85
2022/03/19 04:57:31;;;;;;;60.10;28.00;;;;;;;;;;5035371;28;20105;-84
2022/03/19 04:59:58;;;;;;;59.33;27.63;;;;;;;;;;5034770;28;20464;-85
2022/03/19 05:02:25;;;;;;;53.60;26.15;;;;;;;;;;5029308;28;20379;-85
2022/03/19 05:04:51;;;;;;;60.78;28.00;;;;;;;;;;5002543;28;20068;-86
2022/03/19 05:07:19;;;;;;;50.75;26.17;;;;;;;;;;5016230;28;20480;-85
2022/03/19 05:12:30;;;;;;;61.00;28.23;;;;;;;;;;5020640;28;20101;-83
2022/03/19 05:14:57;;;;;;;59.45;27.92;;;;;;;;;;4998649;28;20085;-84
2022/03/19 05:17:23;;;;;;;64.82;27.83;;;;;;;;;;5013684;28;20028;-85
2022/03/19 05:19:49;;;;;;;52.58;26.58;;;;;;;;;;5035032;28;20026;-82
2022/03/19 05:22:15;;;;;;;57.35;28.42;;;;;;;;;;5017408;28;20034;-85
2022/03/19 05:24:41;;;;;;;56.13;28.25;;;;;;;;;;5017501;28;20378;-83
2022/03/19 05:27:09;;;;;;;59.80;27.60;;;;;;;;;;5024582;28;20037;-83
2022/03/19 05:29:35;;;;;;;50.85;25.65;;;;;;;;;;5032379;28;20006;-85
2022/03/19 05:32:01;;;;;;;63.25;28.83;;;;;;;;;;5039035;28;20045;-84
2022/03/19 05:34:30;;;;;;;59.80;27.75;;;;;;;;;;5031071;28;20176;-84
2022/03/19 05:36:56;;;;;;;57.65;27.92;;;;;;;;;;5041103;28;20045;-85
2022/03/19 05:39:22;;;;;;;54.15;27.75;;;;;;;;;;5028922;28;20095;-84
2022/03/19 05:41:48;;;;;;;53.97;27.33;;;;;;;;;;5036881;28;20026;-84
2022/03/19 05:44:14;;;;;;;59.92;29.08;;;;;;;;;;5009085;28;20033;-84
2022/03/19 05:46:40;;;;;;;65.03;29.05;;;;;;;;;;5003032;28;20036;-83
2022/03/19 05:49:06;;;;;;;53.30;26.52;;;;;;;;;;5032875;28;20021;-84
2022/03/19 05:51:32;;;;;;;59.20;28.77;;;;;;;;;;5020156;28;20108;-82
2022/03/19 05:53:58;;;;;;;55.80;27.90;;;;;;;;;;5015141;28;20064;-82
2022/03/19 05:56:24;;;;;;;60.47;29.23;;;;;;;;;;5019129;28;20116;-84
2022/03/19 05:58:51;;;;;;;60.97;28.75;;;;;;;;;;5017485;28;20103;-84
2022/03/19 06:01:17;;;;;;;64.60;27.95;;;;;;;;;;5035076;28;20025;-84
2022/03/19 06:03:43;;;;;;;66.72;28.67;;;;;;;;;;5035095;28;20504;-84
2022/03/19 06:06:10;;;;;;;59.28;28.15;;;;;;;;;;5027088;28;20079;-84
2022/03/19 06:08:36;;;;;;;59.85;28.67;;;;;;;;;;5020386;28;20021;-83
2022/03/19 06:11:02;;;;;;;57.85;27.75;;;;;;;;;;5052484;28;20014;-84
2022/03/19 06:13:28;;;;;;;65.45;28.25;;;;;;;;;;5017444;28;20030;-84
2022/03/19 06:15:54;;;;;;;58.88;28.50;;;;;;;;;;5026247;28;20512;-83
2022/03/19 06:18:20;;;;;;;57.33;29.00;;;;;;;;;;5011647;28;20116;-83
2022/03/19 06:20:46;;;;;;;56.65;27.60;;;;;;;;;;5022603;28;20474;-84
2022/03/19 06:23:12;;;;;;;58.38;27.00;;;;;;;;;;5013221;28;20055;-84
2022/03/19 06:25:38;;;;;;;58.80;27.67;;;;;;;;;;5020097;28;20037;-83
2022/03/19 06:28:04;;;;;;;51.20;26.67;;;;;;;;;;5003547;28;20014;-84
2022/03/19 06:30:32;;;;;;;58.17;27.45;;;;;;;;;;5047381;28;20029;-85
2022/03/19 06:32:58;;;;;;;61.90;29.13;;;;;;;;;;5043993;28;20022;-84
2022/03/19 06:38:10;;;;;;;57.20;27.45;;;;;;;;;;5033723;28;20064;-84
2022/03/19 06:40:36;;;;;;;57.47;26.95;;;;;;;;;;5040056;28;20037;-83
2022/03/19 06:43:02;;;;;;;57.33;28.35;;;;;;;;;;5006519;28;20045;-84
2022/03/19 06:45:28;;;;;;;55.92;28.20;;;;;;;;;;4999841;28;20034;-84
2022/03/19 06:47:54;;;;;;;51.00;26.10;;;;;;;;;;5019103;28;20108;-84
2022/03/19 06:50:20;;;;;;;59.15;27.67;;;;;;;;;;5018585;28;20049;-84
2022/03/19 06:52:46;;;;;;;53.85;27.00;;;;;;;;;;5019266;28;20040;-83
2022/03/19 06:55:12;;;;;;;55.22;27.20;;;;;;;;;;5024301;28;20009;-85
2022/03/19 06:57:38;;;;;;;56.17;27.08;;;;;;;;;;5032675;28;20156;-85
2022/03/19 07:00:05;;;;;;;52.08;26.58;;;;;;;;;;5012351;28;20406;-84
2022/03/19 07:02:31;;;;;;;54.92;27.60;;;;;;;;;;5027775;28;20045;-85
2022/03/19 07:04:57;;;;;;;54.85;27.00;;;;;;;;;;5019914;28;20033;-84
2022/03/19 07:26:26;;;;;;;56.88;26.65;;;;;;;;;;4910380;29;20095;-84
2022/03/19 07:28:52;;;;;;;53.42;25.90;;;;;;;;;;4909512;29;20040;-84
2022/03/19 07:31:18;;;;;;;51.75;26.50;;;;;;;;;;4958947;28;20034;-84
2022/03/19 07:33:47;;;;;;;54.85;26.48;;;;;;;;;;4998288;28;20018;-84
2022/03/19 07:36:13;;;;;;;52.28;25.27;;;;;;;;;;4998595;28;20041;-83
2022/03/19 07:38:39;;;;;;;50.33;23.63;;;;;;;;;;5016403;28;20026;-84
2022/03/19 07:43:50;;;;;;;48.78;24.90;;;;;;;;;;5041443;28;20056;-85
2022/03/19 07:46:16;;;;;;;50.20;25.63;;;;;;;;;;5056835;28;20073;-86
2022/03/19 07:48:42;;;;;;;52.70;26.90;;;;;;;;;;5043606;28;20112;-84
2022/03/19 07:51:09;;;;;;;52.13;25.52;;;;;;;;;;5033786;28;20446;-84
2022/03/19 07:53:37;;;;;;;52.75;27.00;;;;;;;;;;5018621;28;20022;-82
2022/03/19 07:59:09;;;;;;;49.13;24.15;;;;;;;;;;5008865;28;20021;-83
2022/03/19 08:01:35;;;;;;;51.95;25.95;;;;;;;;;;5028683;28;20105;-84
2022/03/19 08:04:01;;;;;;;51.88;24.95;;;;;;;;;;5019304;28;20022;-83
2022/03/19 08:10:22;;;;;;;45.13;23.98;;;;;;;;;;4935070;29;20075;-82
2022/03/19 08:12:58;;;;;;;49.83;22.58;;;;;;;;;;4975919;28;20112;-83
2022/03/19 08:15:58;;;;;;;;;;;;;;;;;;;;;
2022/03/19 08:18:50;;;;;;;43.28;23.35;;;;;;;;;;5028952;28;20080;-83
2022/03/19 08:21:28;;;;;;;46.38;24.23;;;;;;;;;;5019462;28;20061;-84
2022/03/19 08:23:54;;;;;;;43.00;23.15;;;;;;;;;;5024833;28;20028;-82
2022/03/19 08:26:23;;;;;;;48.25;24.08;;;;;;;;;;5034541;28;20045;-83
2022/03/19 08:29:25;;;;;;;42.80;22.77;;;;;;;;;;5000579;28;20030;-84
2022/03/19 08:32:11;;;;;;;48.42;23.67;;;;;;;;;;4901739;29;20087;-83
2022/03/19 08:34:38;;;;;;;42.13;22.55;;;;;;;;;;5005361;28;20222;-84
2022/03/19 08:37:27;;;;;;;49.50;21.52;;;;;;;;;;4999079;28;20037;-84
2022/03/19 08:42:38;;;;;;;38.47;21.40;;;;;;;;;;5034947;28;20484;-82
2022/03/19 08:45:05;;;;;;;38.33;20.70;;;;;;;;;;5043076;28;20029;-83
2022/03/19 08:48:03;;;;;;;39.42;21.55;;;;;;;;;;5019739;28;20030;-83
2022/03/19 08:50:29;;;;;;;39.05;20.50;;;;;;;;;;4989032;28;20041;-84
2022/03/19 08:53:46;;;;;;;;;;;;;;;;;;;;;
2022/03/19 09:00:22;;;;;;;39.67;19.55;;;;;;;;;;4967498;28;20035;-83
2022/03/19 09:03:06;;;;;;;34.95;19.10;;;;;;;;;;4956309;28;20058;-82
2022/03/19 09:05:43;;;;;;;39.47;18.98;;;;;;;;;;4974190;28;20041;-83
2022/03/19 09:08:32;;;;;;;36.75;19.40;;;;;;;;;;4958067;28;20035;-84
2022/03/19 09:14:27;;;;;;;;;;;;;;;;;;;;;
2022/03/19 09:16:55;;;;;;;29.95;18.92;;;;;;;;;;5046919;28;20042;-85
2022/03/19 09:19:41;;;;;;;34.85;20.42;;;;;;;;;;5039458;28;20030;-85
2022/03/19 09:22:07;;;;;;;30.10;18.67;;;;;;;;;;5028447;28;20239;-86
2022/03/19 09:24:33;;;;;;;32.40;18.38;;;;;;;;;;5059225;28;20033;-86
2022/03/19 09:30:25;;;;;;;33.72;18.67;;;;;;;;;;4978759;28;20035;-87
2022/03/19 09:32:56;;;;;;;33.42;19.58;;;;;;;;;;4968342;28;20066;-86
2022/03/19 09:35:29;;;;;;;;;;;;;;;;;;5002904;28;20044;-85
2022/03/19 09:38:00;;;;;;;31.17;18.27;;;;;;;;;;5028317;28;19901;-88
2022/03/19 09:40:26;;;;;;;27.30;18.30;;;;;;;;;;5042447;28;20022;-86
2022/03/19 09:42:54;;;;;;;33.40;20.00;;;;;;;;;;5040698;28;20018;-87
2022/03/19 09:45:21;;;;;;;33.58;20.65;;;;;;;;;;5044844;28;20053;-85
2022/03/19 09:47:47;;;;;;;34.63;19.88;;;;;;;;;;5039660;28;20117;-86
2022/03/19 09:50:13;;;;;;;32.58;19.13;;;;;;;;;;5050899;28;20049;-87
2022/03/19 09:52:43;;;;;;;32.88;19.23;;;;;;;;;;5046593;28;20012;-87
2022/03/19 09:55:26;;;;;;;30.45;19.67;;;;;;;;;;5041610;28;20038;-86
2022/03/19 09:58:15;;;;;;;33.53;20.83;;;;;;;;;;5049088;28;20136;-86
2022/03/19 10:00:41;;;;;;;30.70;19.70;;;;;;;;;;5058678;28;20040;-87
2022/03/19 10:03:09;;;;;;;32.33;19.50;;;;;;;;;;5059015;28;20013;-88
2022/03/19 10:08:37;;;;;;;30.08;19.13;;;;;;;;;;5038832;28;20102;-89
2022/03/19 10:11:03;;;;;;;32.67;20.92;;;;;;;;;;5038940;28;20060;-87
2022/03/19 10:13:29;;;;;;;29.05;18.88;;;;;;;;;;5021560;28;20141;-86
2022/03/19 10:15:55;;;;;;;32.83;19.63;;;;;;;;;;5021596;28;20085;-87
2022/03/19 10:18:31;;;;;;;27.85;18.42;;;;;;;;;;5035940;28;20094;-87
2022/03/19 10:21:34;;;;;;;;;;;;;;;;;;;;;
2022/03/19 10:24:01;;;;;;;30.75;19.73;;;;;;;;;;5144032;22;20062;-85
2022/03/19 10:26:33;;;;;;;31.83;19.58;;;;;;;;;;5057316;22;20552;-83
2022/03/19 10:29:09;;;;;;;31.33;19.83;;;;;;;;;;5030810;28;20021;-80
2022/03/19 10:31:35;;;;;;;28.45;18.52;;;;;;;;;;5024003;28;20052;-83
2022/03/19 10:34:02;;;;;;;30.02;17.90;;;;;;;;;;5036130;28;20033;-83
2022/03/19 10:36:31;;;;;;;28.58;17.33;;;;;;;;;;5008725;28;20034;-82
2022/03/19 10:38:58;;;;;;;31.38;17.42;;;;;;;;;;5037110;28;20025;-82
2022/03/19 10:41:24;;;;;;;31.02;17.88;;;;;;;;;;5036947;28;20038;-84
2022/03/19 10:43:50;;;;;;;26.48;16.10;;;;;;;;;;5012631;28;20030;-83
2022/03/19 10:46:19;;;;;;;28.23;17.02;;;;;;;;;;5042208;28;20519;-83
2022/03/19 10:48:54;;;;;;;27.80;16.73;;;;;;;;;;5044716;28;20025;-85
2022/03/19 10:51:20;;;;;;;28.52;17.25;;;;;;;;;;5042659;28;20064;-83
2022/03/19 10:53:47;;;;;;;27.60;17.65;;;;;;;;;;5024890;28;20021;-83
2022/03/19 10:56:13;;;;;;;26.73;18.05;;;;;;;;;;5041758;28;20077;-84
2022/03/19 10:58:39;;;;;;;27.90;18.20;;;;;;;;;;5041205;28;20030;-82
2022/03/19 11:01:07;;;;;;;26.48;16.50;;;;;;;;;;5040679;28;20045;-83
2022/03/19 11:03:35;;;;;;;25.15;16.95;;;;;;;;;;5021417;28;20076;-83
2022/03/19 11:06:05;;;;;;;30.67;16.70;;;;;;;;;;5026849;28;20018;-83
2022/03/19 11:08:37;;;;;;;27.25;16.52;;;;;;;;;;5041252;28;20022;-82
2022/03/19 11:11:05;;;;;;;26.45;16.45;;;;;;;;;;5029565;28;20018;-86
2022/03/19 11:13:33;;;;;;;30.20;16.17;;;;;;;;;;5028817;28;20036;-87
2022/03/19 11:16:00;;;;;;;27.58;15.95;;;;;;;;;;5046453;28;20021;-85
2022/03/19 11:18:27;;;;;;;30.52;18.35;;;;;;;;;;5025221;28;20365;-85
2022/03/19 11:20:53;;;;;;;24.52;14.98;;;;;;;;;;5043340;28;20108;-85
2022/03/19 11:23:25;;;;;;;24.52;15.52;;;;;;;;;;5042740;28;20029;-84
2022/03/19 11:25:56;;;;;;;23.10;15.57;;;;;;;;;;5044774;28;20045;-86
2022/03/19 11:28:22;;;;;;;22.08;14.93;;;;;;;;;;5045724;28;20022;-84
2022/03/19 11:31:10;;;;;;;21.27;12.88;;;;;;;;;;5044702;28;20018;-86
2022/03/19 11:33:38;;;;;;;27.23;13.18;;;;;;;;;;5055837;28;20013;-84
2022/03/19 11:36:06;;;;;;;20.17;13.80;;;;;;;;;;5031219;28;20025;-85
2022/03/19 11:38:33;;;;;;;21.80;13.43;;;;;;;;;;5023519;28;20026;-85
2022/03/19 11:41:00;;;;;;;20.45;13.35;;;;;;;;;;5013239;28;20033;-84
2022/03/19 11:43:32;;;;;;;21.45;14.43;;;;;;;;;;5002488;28;20022;-85
2022/03/19 11:46:05;;;;;;;22.95;13.15;;;;;;;;;;5023809;28;20085;-83
2022/03/19 11:48:47;;;;;;;20.48;12.20;;;;;;;;;;5023051;28;20033;-86
2022/03/19 11:51:13;;;;;;;22.10;12.65;;;;;;;;;;5041475;28;20362;-84
2022/03/19 11:53:59;;;;;;;19.58;12.18;;;;;;;;;;5024013;28;20029;-85
2022/03/19 11:56:27;;;;;;;28.92;13.93;;;;;;;;;;5041571;28;20088;-83
2022/03/19 11:58:53;;;;;;;20.02;12.32;;;;;;;;;;5041176;28;20041;-85
2022/03/19 12:01:47;;;;;;;21.63;13.43;;;;;;;;;;5022176;28;20025;-83
2022/03/19 12:04:13;;;;;;;18.73;10.73;;;;;;;;;;5040308;28;20107;-86
2022/03/19 12:06:49;;;;;;;15.73;9.85;;;;;;;;;;5036932;28;20298;-84
2022/03/19 12:09:15;;;;;;;17.02;9.45;;;;;;;;;;5040652;28;20048;-84
2022/03/19 12:11:41;;;;;;;17.27;9.65;;;;;;;;;;5041970;28;20041;-85
2022/03/19 12:14:10;;;;;;;15.82;9.18;;;;;;;;;;5037270;28;20018;-84
2022/03/19 12:16:39;;;;;;;15.75;8.27;;;;;;;;;;5003616;28;20125;-83
2022/03/19 12:19:05;;;;;;;13.70;6.53;;;;;;;;;;5038909;28;20036;-86
2022/03/19 12:21:34;;;;;;;11.38;5.88;;;;;;;;;;5037931;28;20056;-85
2022/03/19 12:24:06;;;;;;;13.27;5.50;;;;;;;;;;5020927;28;20049;-83
2022/03/19 12:26:37;;;;;;;10.82;5.00;;;;;;;;;;5020203;28;20065;-85
2022/03/19 12:29:04;;;;;;;9.32;5.55;;;;;;;;;;5038352;28;20018;-84
2022/03/19 12:31:31;;;;;;;9.95;5.03;;;;;;;;;;5041034;28;20044;-85
2022/03/19 12:33:57;;;;;;;9.85;4.50;;;;;;;;;;5038798;28;20052;-83
2022/03/19 12:36:23;;;;;;;9.40;4.82;;;;;;;;;;5045618;28;20060;-84
2022/03/19 12:38:50;;;;;;;7.97;4.28;;;;;;;;;;5026252;28;20025;-84
2022/03/19 12:41:23;;;;;;;8.23;3.75;;;;;;;;;;5042332;28;20033;-85
2022/03/19 12:43:49;;;;;;;8.00;3.35;;;;;;;;;;5048687;28;20025;-85
2022/03/19 12:46:35;;;;;;;9.23;3.90;;;;;;;;;;5048732;28;20036;-85
2022/03/19 12:49:14;;;;;;;6.85;3.00;;;;;;;;;;5041438;28;20032;-85
2022/03/19 12:52:15;;;;;;;9.80;3.15;;;;;;;;;;5024658;28;20026;-87
2022/03/19 12:54:48;;;;;;;8.73;3.00;;;;;;;;;;5024418;28;20041;-87
2022/03/19 12:57:36;;;;;;;5.95;3.03;;;;;;;;;;5043216;28;20108;-87
2022/03/19 13:00:05;;;;;;;7.70;3.22;;;;;;;;;;5018704;28;20036;-86
2022/03/19 13:02:34;;;;;;;8.13;3.22;;;;;;;;;;5040401;28;20415;-87
2022/03/19 13:05:02;;;;;;;6.88;2.97;;;;;;;;;;5056473;28;20054;-87
2022/03/19 13:07:31;;;;;;;6.35;2.90;;;;;;;;;;5054719;28;20048;-87
2022/03/19 13:10:24;;;;;;;6.30;2.97;;;;;;;;;;5052058;28;20273;-86
2022/03/19 13:13:11;;;;;;;9.57;3.13;;;;;;;;;;5034159;28;20030;-87
2022/03/19 13:15:46;;;;;;;8.27;3.33;;;;;;;;;;5050106;28;20026;-84
2022/03/19 13:18:12;;;;;;;7.32;2.97;;;;;;;;;;5056121;28;20017;-86
2022/03/19 13:20:39;;;;;;;6.85;3.47;;;;;;;;;;5052719;28;20021;-87
2022/03/19 13:23:15;;;;;;;;;;;;;;;;;;;;;
2022/03/19 13:25:45;;;;;;;6.97;2.78;;;;;;;;;;5039235;28;20132;-87
2022/03/19 13:28:11;;;;;;;6.80;2.85;;;;;;;;;;5044577;28;20029;-86
2022/03/19 13:33:46;;;;;;;9.95;3.30;;;;;;;;;;5011194;28;20026;-86
2022/03/19 13:36:26;;;;;;;5.07;2.30;;;;;;;;;;5045665;28;20018;-87
2022/03/19 13:39:01;;;;;;;6.18;2.42;;;;;;;;;;5025837;28;20064;-86
2022/03/19 13:41:27;;;;;;;5.43;2.33;;;;;;;;;;5058682;28;20031;-88
2022/03/19 13:46:59;;;;;;;5.00;1.98;;;;;;;;;;5040604;28;20044;-87
2022/03/19 13:49:33;;;;;;;4.38;2.00;;;;;;;;;;5040204;28;20095;-87
2022/03/19 13:52:48;;;;;;;;;;;;;;;;;;;;;
2022/03/19 13:55:32;;;;;;;5.65;1.77;;;;;;;;;;5025084;28;20101;-88
2022/03/19 13:58:02;;;;;;;5.03;1.70;;;;;;;;;;5024824;28;20037;-85
2022/03/19 14:00:33;;;;;;;3.72;1.70;;;;;;;;;;5042070;28;20114;-86
2022/03/19 14:03:04;;;;;;;2.42;1.77;;;;;;;;;;5049721;28;20036;-87
2022/03/19 14:05:33;;;;;;;3.25;1.45;;;;;;;;;;5054814;28;20036;-87
2022/03/19 14:08:01;;;;;;;2.70;1.65;;;;;;;;;;5044371;28;20041;-87
2022/03/19 14:10:46;;;;;;;5.65;1.80;;;;;;;;;;5028530;28;20036;-87
2022/03/19 14:13:15;;;;;;;3.92;1.95;;;;;;;;;;5045907;28;20017;-87
2022/03/19 14:15:41;;;;;;;3.38;1.67;;;;;;;;;;5047307;28;20048;-86
2022/03/19 14:18:07;;;;;;;3.30;1.38;;;;;;;;;;5046903;28;20018;-86
2022/03/19 14:20:33;;;;;;;4.53;1.30;;;;;;;;;;5045926;28;20033;-84
2022/03/19 14:22:59;;;;;;;5.53;1.65;;;;;;;;;;5047200;28;20029;-87
2022/03/19 14:25:25;;;;;;;2.63;1.35;;;;;;;;;;5042700;28;20063;-89
2022/03/19 14:28:02;;;;;;;2.85;1.80;;;;;;;;;;5045515;28;20033;-86
2022/03/19 14:30:30;;;;;;;3.38;1.50;;;;;;;;;;5045641;28;20080;-87
2022/03/19 14:32:59;;;;;;;3.90;1.30;;;;;;;;;;5043129;28;20021;-86
2022/03/19 14:35:44;;;;;;;4.97;1.55;;;;;;;;;;5023908;28;20508;-85
2022/03/19 14:38:11;;;;;;;4.00;1.70;;;;;;;;;;5040575;28;20123;-87
2022/03/19 14:43:54;;;;;;;5.18;1.58;;;;;;;;;;5040428;28;20039;-87
2022/03/19 14:46:19;;;;;;;2.83;1.10;;;;;;;;;;5034523;28;20030;-85
2022/03/19 14:48:46;;;;;;;3.15;1.35;;;;;;;;;;5040081;28;20025;-87
2022/03/19 14:51:12;;;;;;;4.82;1.33;;;;;;;;;;5039346;28;20026;-87
2022/03/19 14:53:39;;;;;;;3.90;1.20;;;;;;;;;;5039440;28;20075;-87
2022/03/19 14:56:09;;;;;;;2.55;1.10;;;;;;;;;;5040655;28;20037;-87
2022/03/19 14:58:35;;;;;;;2.13;1.27;;;;;;;;;;5040929;28;20033;-88
2022/03/19 15:01:13;;;;;;;3.30;1.48;;;;;;;;;;5040488;28;20325;-85
2022/03/19 15:03:39;;;;;;;3.05;1.20;;;;;;;;;;5022396;28;20022;-85
2022/03/19 15:06:08;;;;;;;2.58;1.17;;;;;;;;;;5040147;28;20041;-86
2022/03/19 15:08:34;;;;;;;4.90;1.50;;;;;;;;;;5040533;28;20018;-86
2022/03/19 15:11:05;;;;;;;4.38;1.20;;;;;;;;;;5040211;28;20030;-86
2022/03/19 15:13:33;;;;;;;3.20;1.38;;;;;;;;;;5038992;28;20032;-86
2022/03/19 15:16:00;;;;;;;3.70;1.08;;;;;;;;;;5040089;28;20107;-87
2022/03/19 15:18:31;;;;;;;1.48;1.00;;;;;;;;;;5022077;28;20443;-86
2022/03/19 15:20:58;;;;;;;1.95;1.08;;;;;;;;;;5039441;28;20021;-86
2022/03/19 15:23:26;;;;;;;3.42;1.00;;;;;;;;;;5041033;28;20032;-86
2022/03/19 15:25:53;;;;;;;4.40;1.10;;;;;;;;;;5041841;28;20037;-86
2022/03/19 15:28:19;;;;;;;3.38;1.35;;;;;;;;;;5029289;28;20052;-85
2022/03/19 15:30:45;;;;;;;1.55;1.13;;;;;;;;;;5049465;28;20013;-86
2022/03/19 15:33:11;;;;;;;6.38;0.80;;;;;;;;;;5057704;28;20029;-86
2022/03/19 15:35:41;;;;;;;3.35;1.52;;;;;;;;;;5056919;28;20032;-87
2022/03/19 15:38:10;;;;;;;3.08;1.00;;;;;;;;;;5057537;28;20068;-87
2022/03/19 15:40:39;;;;;;;4.82;2.22;;;;;;;;;;5057704;28;20024;-86
2022/03/19 15:43:10;;;;;;;4.07;1.23;;;;;;;;;;5057922;28;20021;-84
2022/03/19 15:45:36;;;;;;;3.97;1.30;;;;;;;;;;5054700;28;20022;-86